Terminal Aerodrome Forecast
Issued by NWS

Home | Current Version | Previous Version | Text Only | Print | Product List | Glossary On
Versions: 1 2 3 4 5 6 7 8 9 10 11 12 13 14 15 16 17 18 19 20 21 22 23 24
000
FTUS44 KEWX 201700
TAFSSF
TAF
KSSF 201737Z 2018/2118 16015G22KT P6SM FEW040
     FM210300 14012KT P6SM SCT070
     FM210800 14008KT P6SM BKN015
     FM211200 15015KT P6SM SCT020=

USA.gov is the U.S. government's official web portal to all federal, state and local government web resources and services.